createdAt,value
2023-03-26T00:02:14.064Z,1.17
2023-03-26T00:05:02.296Z,1.65
2023-03-26T00:07:49.137Z,1.37
2023-03-26T00:10:37.830Z,2.88
2023-03-26T00:13:24.662Z,1.42
2023-03-26T00:16:13.831Z,1.75
2023-03-26T00:19:02.042Z,2.42
2023-03-26T00:21:48.926Z,1.30
2023-03-26T00:24:37.382Z,2.58
2023-03-26T00:27:25.469Z,1.58
2023-03-26T00:30:12.516Z,1.25
2023-03-26T00:32:59.446Z,1.75
2023-03-26T00:35:47.387Z,2.65
2023-03-26T00:38:38.722Z,1.85
2023-03-26T00:41:26.948Z,3.13
2023-03-26T00:44:14.002Z,1.10
2023-03-26T00:47:00.954Z,1.30
2023-03-26T00:49:48.790Z,0.93
2023-03-26T00:52:36.184Z,1.58
2023-03-26T00:55:23.436Z,2.13
2023-03-26T00:58:10.940Z,1.90
2023-03-26T01:00:59.715Z,2.05
2023-03-26T01:04:00.848Z,1.60
2023-03-26T01:06:55.562Z,2.38
2023-03-26T01:09:50.236Z,3.40
2023-03-26T01:12:37.160Z,2.22
2023-03-26T01:15:29.826Z,2.72
2023-03-26T01:18:26.331Z,2.03
2023-03-26T01:21:14.540Z,1.50
2023-03-26T01:24:02.878Z,2.05
2023-03-26T01:27:04.413Z,1.63
2023-03-26T01:30:07.364Z,2.15
2023-03-26T01:33:14.578Z,3.28
2023-03-26T01:36:06.502Z,1.67
2023-03-26T01:39:07.999Z,3.13
2023-03-26T01:41:58.483Z,3.75
2023-03-26T01:44:55.874Z,1.13
2023-03-26T01:47:44.204Z,1.70
2023-03-26T01:50:31.340Z,3.20
2023-03-26T01:53:18.451Z,2.65
2023-03-26T01:56:23.230Z,3.53
2023-03-26T01:59:41.325Z,2.40
2023-03-26T02:03:06.115Z,4.13
2023-03-26T02:05:58.406Z,1.33
2023-03-26T02:08:54.194Z,2.70
2023-03-26T02:11:41.661Z,1.60
2023-03-26T02:14:30.339Z,2.25
2023-03-26T02:17:19.125Z,1.90
2023-03-26T02:20:12.299Z,3.10
2023-03-26T02:22:59.913Z,3.92
2023-03-26T02:25:47.381Z,2.83
2023-03-26T02:28:34.960Z,4.07
2023-03-26T02:31:26.293Z,2.47
2023-03-26T02:34:13.317Z,1.77
2023-03-26T02:37:00.873Z,4.10
2023-03-26T02:39:47.721Z,2.22
2023-03-26T02:42:34.531Z,3.53
2023-03-26T02:45:22.110Z,3.20
2023-03-26T02:48:08.958Z,3.58
2023-03-26T02:50:55.848Z,2.22
2023-03-26T02:53:42.732Z,2.70
2023-03-26T02:56:29.814Z,1.90
2023-03-26T02:59:16.933Z,2.78
2023-03-26T03:02:04.059Z,3.90
2023-03-26T03:04:51.991Z,2.05
2023-03-26T03:07:39.052Z,3.80
2023-03-26T03:10:27.617Z,1.92
2023-03-26T03:13:15.009Z,3.40
2023-03-26T03:16:01.896Z,5.90
2023-03-26T03:18:54.583Z,2.92
2023-03-26T03:21:42.023Z,3.67
2023-03-26T03:24:28.987Z,4.30
2023-03-26T03:27:16.095Z,2.10
2023-03-26T03:30:03.083Z,4.20
2023-03-26T03:32:49.937Z,4.20
2023-03-26T03:35:38.356Z,3.78
2023-03-26T03:38:25.275Z,1.88
2023-03-26T03:41:12.398Z,2.03
2023-03-26T03:44:01.498Z,6.18
2023-03-26T03:49:36.130Z,2.88
2023-03-26T03:52:23.056Z,3.78
2023-03-26T03:55:10.630Z,3.40
2023-03-26T03:57:59.920Z,3.72
2023-03-26T04:00:48.693Z,2.05
2023-03-26T04:03:38.808Z,4.30
2023-03-26T04:06:26.125Z,3.05
2023-03-26T04:09:12.981Z,2.38
2023-03-26T04:11:59.891Z,4.28
2023-03-26T04:14:46.804Z,2.58
2023-03-26T04:17:33.820Z,3.65
2023-03-26T04:20:20.956Z,1.88
2023-03-26T04:23:08.412Z,4.63
2023-03-26T04:25:56.220Z,3.65
2023-03-26T04:28:46.510Z,2.38
2023-03-26T04:31:34.185Z,4.03
2023-03-26T04:34:24.205Z,1.80
2023-03-26T04:37:18.987Z,2.33
2023-03-26T04:40:30.595Z,1.20
2023-03-26T04:43:18.160Z,2.63
2023-03-26T04:46:05.298Z,3.22
2023-03-26T04:48:53.050Z,4.50
2023-03-26T04:51:42.034Z,3.45
2023-03-26T04:54:28.929Z,3.28
2023-03-26T04:57:23.806Z,3.55
2023-03-26T05:00:18.897Z,4.40
2023-03-26T05:03:06.260Z,2.67
2023-03-26T05:05:53.441Z,2.63
2023-03-26T05:08:41.809Z,2.42
2023-03-26T05:11:28.792Z,2.33
2023-03-26T05:14:15.703Z,4.10
2023-03-26T05:17:05.938Z,4.57
2023-03-26T05:19:52.860Z,4.28
2023-03-26T05:22:39.694Z,3.97
2023-03-26T05:25:26.550Z,3.30
2023-03-26T05:28:13.458Z,4.43
2023-03-26T05:31:01.283Z,2.92
2023-03-26T05:33:48.639Z,2.50
2023-03-26T05:36:35.570Z,3.75
2023-03-26T05:39:26.210Z,3.90
2023-03-26T05:42:13.161Z,3.45
2023-03-26T05:45:00.007Z,4.43
2023-03-26T05:47:47.817Z,5.18
2023-03-26T05:50:34.707Z,2.45
2023-03-26T05:53:22.463Z,5.32
2023-03-26T05:56:10.604Z,3.53
2023-03-26T05:58:57.717Z,1.77
2023-03-26T06:01:44.782Z,3.67
2023-03-26T06:04:32.464Z,3.95
2023-03-26T06:07:19.994Z,3.60
2023-03-26T06:10:07.331Z,4.45
2023-03-26T06:12:54.193Z,3.03
2023-03-26T06:15:41.191Z,3.50
2023-03-26T06:18:28.339Z,3.22
2023-03-26T06:21:15.457Z,4.57
2023-03-26T06:24:02.323Z,5.55
2023-03-26T06:26:49.195Z,2.60
2023-03-26T06:29:36.164Z,2.78
2023-03-26T06:32:23.170Z,4.13
2023-03-26T06:35:11.171Z,5.45
2023-03-26T06:37:58.522Z,3.40
2023-03-26T06:40:45.448Z,4.38
2023-03-26T06:43:36.213Z,3.83
2023-03-26T06:46:23.567Z,2.65
2023-03-26T06:49:10.405Z,2.97
2023-03-26T06:51:57.835Z,2.88
2023-03-26T06:54:44.687Z,3.15
2023-03-26T06:57:31.515Z,2.90
2023-03-26T07:00:19.700Z,3.60
2023-03-26T07:03:06.666Z,2.13
2023-03-26T07:05:53.519Z,3.15
2023-03-26T07:08:40.359Z,3.88
2023-03-26T07:11:27.276Z,3.72
2023-03-26T07:14:14.162Z,2.08
2023-03-26T07:17:01.213Z,5.60
2023-03-26T07:19:48.122Z,1.83
2023-03-26T07:22:35.742Z,3.67
2023-03-26T07:25:22.844Z,4.28
2023-03-26T07:28:37.295Z,3.30
2023-03-26T07:31:48.306Z,4.10
2023-03-26T07:34:46.437Z,4.57
2023-03-26T07:38:01.839Z,3.17
2023-03-26T07:41:06.918Z,4.07
2023-03-26T07:44:18.561Z,4.88
2023-03-26T07:47:16.149Z,3.08
2023-03-26T07:50:04.074Z,4.53
2023-03-26T07:52:51.133Z,3.50
2023-03-26T07:55:51.114Z,3.65
2023-03-26T07:58:46.964Z,3.08
2023-03-26T08:01:49.565Z,4.40
2023-03-26T08:04:48.065Z,4.10
2023-03-26T08:07:39.425Z,2.92
2023-03-26T08:10:27.993Z,3.70
2023-03-26T08:13:41.638Z,4.05
2023-03-26T08:16:40.170Z,4.95
2023-03-26T08:19:33.174Z,3.75
2023-03-26T08:22:28.759Z,2.70
2023-03-26T08:25:17.731Z,3.78
2023-03-26T08:28:37.885Z,5.20
2023-03-26T08:31:33.689Z,5.53
2023-03-26T08:34:20.550Z,4.10
2023-03-26T08:37:07.804Z,4.30
2023-03-26T08:39:54.712Z,4.38
2023-03-26T08:42:56.032Z,4.47
2023-03-26T08:46:12.040Z,2.95
2023-03-26T08:49:15.857Z,3.67
2023-03-26T08:52:31.086Z,5.70
2023-03-26T08:55:33.070Z,5.55
2023-03-26T08:58:34.595Z,4.88
2023-03-26T09:01:30.753Z,4.43
2023-03-26T09:04:20.364Z,6.10
2023-03-26T09:07:21.405Z,5.38
2023-03-26T09:10:35.648Z,4.80
2023-03-26T09:13:54.589Z,5.28
2023-03-26T09:17:09.911Z,3.92
2023-03-26T09:20:24.251Z,3.35
2023-03-26T09:23:33.023Z,4.90
2023-03-26T09:27:05.500Z,4.72
2023-03-26T09:30:20.050Z,2.97
2023-03-26T09:33:32.890Z,4.25
2023-03-26T09:36:22.488Z,3.35
2023-03-26T09:39:27.924Z,4.00
2023-03-26T09:42:37.250Z,4.00
2023-03-26T09:45:46.115Z,4.57
2023-03-26T09:48:42.567Z,3.85
2023-03-26T09:51:44.641Z,4.03
2023-03-26T09:55:02.222Z,5.50
2023-03-26T09:57:58.385Z,4.65
2023-03-26T10:01:03.868Z,5.65
2023-03-26T10:03:53.779Z,5.18
2023-03-26T10:06:47.114Z,4.78
2023-03-26T10:09:43.803Z,5.40
2023-03-26T10:12:36.635Z,5.05
2023-03-26T10:15:43.372Z,4.10
2023-03-26T10:18:42.280Z,4.25
2023-03-26T10:21:42.875Z,4.55
2023-03-26T10:24:38.696Z,3.28
2023-03-26T10:27:37.680Z,3.67
2023-03-26T10:30:48.916Z,3.95
2023-03-26T10:33:59.957Z,4.63
2023-03-26T10:37:22.258Z,4.70
2023-03-26T10:40:14.477Z,5.20
2023-03-26T10:43:29.597Z,4.30
2023-03-26T10:46:53.913Z,6.00
2023-03-26T10:49:40.693Z,5.63
2023-03-26T10:52:34.643Z,3.28
2023-03-26T10:55:30.674Z,4.75
2023-03-26T10:58:27.415Z,6.72
2023-03-26T11:01:42.836Z,5.22
2023-03-26T11:04:38.645Z,5.72
2023-03-26T11:08:05.366Z,6.10
2023-03-26T11:11:01.533Z,7.43
2023-03-26T11:13:54.408Z,5.38
2023-03-26T11:16:59.769Z,8.30
2023-03-26T11:20:02.775Z,4.82
2023-03-26T11:23:23.557Z,5.25
2023-03-26T11:26:13.689Z,6.20
2023-03-26T11:29:31.712Z,5.80
2023-03-26T11:32:24.655Z,5.05
2023-03-26T11:35:40.368Z,4.05
2023-03-26T11:38:37.555Z,6.78
2023-03-26T11:41:27.108Z,7.15
2023-03-26T11:44:29.831Z,5.47
2023-03-26T11:47:23.237Z,4.55
2023-03-26T11:50:16.726Z,6.97
2023-03-26T11:53:12.699Z,6.07
2023-03-26T11:56:04.186Z,5.82
2023-03-26T11:59:01.067Z,4.07
2023-03-26T12:01:51.818Z,3.15
2023-03-26T12:04:41.087Z,5.38
2023-03-26T12:07:35.037Z,3.17
2023-03-26T12:10:31.610Z,3.33
2023-03-26T12:13:28.298Z,6.03
2023-03-26T12:16:18.805Z,4.25
2023-03-26T12:19:18.807Z,4.78
2023-03-26T12:22:06.630Z,2.65
2023-03-26T12:25:21.309Z,4.55
2023-03-26T12:28:14.089Z,2.83
2023-03-26T12:31:02.898Z,2.67
2023-03-26T12:34:16.755Z,5.15
2023-03-26T12:37:05.543Z,5.78
2023-03-26T12:40:12.238Z,7.55
2023-03-26T12:44:48.504Z,4.35
2023-03-26T12:47:56.875Z,4.97
2023-03-26T12:49:39.465Z,5.03
2023-03-26T12:52:48.144Z,5.28
2023-03-26T12:55:42.846Z,4.28
2023-03-26T12:58:58.416Z,4.80
2023-03-26T13:02:08.420Z,3.35
2023-03-26T13:05:05.723Z,3.25
2023-03-26T13:08:18.383Z,5.70
2023-03-26T13:11:28.361Z,3.17
2023-03-26T13:14:18.064Z,4.32
2023-03-26T13:17:21.770Z,5.93
2023-03-26T13:20:27.506Z,5.72
2023-03-26T13:23:23.151Z,4.30
2023-03-26T13:26:19.645Z,4.88
2023-03-26T13:29:28.055Z,5.93
2023-03-26T13:32:24.234Z,3.75
2023-03-26T13:35:45.175Z,6.78
2023-03-26T13:38:43.774Z,7.82
2023-03-26T13:42:04.716Z,5.05
2023-03-26T13:45:24.766Z,6.78
2023-03-26T13:48:19.333Z,5.43
2023-03-26T13:51:19.743Z,6.50
2023-03-26T13:54:15.761Z,7.13
2023-03-26T13:57:10.159Z,4.88
2023-03-26T14:00:02.428Z,4.10
2023-03-26T14:02:56.333Z,5.03
2023-03-26T14:05:47.436Z,5.47
2023-03-26T14:08:41.874Z,4.82
2023-03-26T14:11:40.816Z,3.75
2023-03-26T14:14:43.495Z,3.92
2023-03-26T14:17:34.536Z,4.63
2023-03-26T14:20:50.049Z,3.53
2023-03-26T14:23:49.020Z,4.97
2023-03-26T14:26:54.944Z,5.57
2023-03-26T14:30:03.911Z,4.97
2023-03-26T14:32:50.802Z,5.75
2023-03-26T14:35:54.867Z,3.78
2023-03-26T14:39:01.303Z,3.15
2023-03-26T14:41:51.758Z,4.60
2023-03-26T14:45:12.699Z,3.33
2023-03-26T14:48:36.721Z,3.22
2023-03-26T14:51:44.573Z,2.67
2023-03-26T14:54:34.062Z,3.58
2023-03-26T14:57:49.490Z,3.00
2023-03-26T15:01:06.763Z,2.88
2023-03-26T15:04:24.842Z,4.72
2023-03-26T15:07:37.177Z,3.63
2023-03-26T15:10:36.294Z,3.90
2023-03-26T15:16:55.097Z,2.60
2023-03-26T15:20:13.074Z,2.00
2023-03-26T15:23:24.130Z,2.83
2023-03-26T15:26:30.589Z,2.97
2023-03-26T15:29:56.782Z,2.58
2023-03-26T15:32:57.158Z,2.35
2023-03-26T15:35:59.218Z,2.58
2023-03-26T15:39:06.599Z,2.83
2023-03-26T15:41:56.320Z,2.40
2023-03-26T15:44:53.999Z,2.65
2023-03-26T15:47:51.368Z,2.15
2023-03-26T15:51:03.202Z,2.35
2023-03-26T15:53:57.870Z,2.17
2023-03-26T15:57:07.217Z,2.17
2023-03-26T16:00:32.333Z,2.85
2023-03-26T16:03:25.520Z,2.42
2023-03-26T16:06:20.579Z,2.72
2023-03-26T16:09:32.503Z,2.40
2023-03-26T16:13:00.440Z,3.88
2023-03-26T16:16:02.547Z,3.05
2023-03-26T16:19:05.785Z,3.30
2023-03-26T16:21:57.699Z,3.65
2023-03-26T16:24:47.696Z,2.17
2023-03-26T16:27:35.264Z,3.35
2023-03-26T16:30:31.900Z,1.95
2023-03-26T16:33:21.179Z,1.77
2023-03-26T16:36:18.426Z,2.72
2023-03-26T16:39:05.578Z,1.77
2023-03-26T16:42:06.325Z,2.97
2023-03-26T16:45:06.833Z,2.17
2023-03-26T16:48:15.693Z,2.58
2023-03-26T16:51:24.029Z,6.13
2023-03-26T16:54:28.067Z,4.25
2023-03-26T16:57:29.326Z,2.40
2023-03-26T17:00:27.761Z,2.42
2023-03-26T17:03:24.294Z,2.28
2023-03-26T17:06:25.505Z,3.65
2023-03-26T17:09:41.394Z,2.22
2023-03-26T17:12:34.555Z,2.90
2023-03-26T17:15:29.040Z,3.00
2023-03-26T17:18:25.698Z,3.55
2023-03-26T17:21:17.219Z,2.92
2023-03-26T17:24:22.256Z,2.22
2023-03-26T17:27:28.222Z,2.67
2023-03-26T17:30:39.898Z,1.88
2023-03-26T17:33:26.880Z,2.05
2023-03-26T17:36:20.103Z,3.50
2023-03-26T17:39:51.471Z,2.90
2023-03-26T17:42:38.394Z,3.80
2023-03-26T17:45:30.470Z,2.67
2023-03-26T17:48:21.654Z,3.05
2023-03-26T17:51:20.744Z,3.78
2023-03-26T17:57:18.879Z,3.00
2023-03-26T18:00:10.532Z,2.05
2023-03-26T18:03:01.409Z,2.55
2023-03-26T18:05:55.550Z,2.50
2023-03-26T18:09:31.485Z,2.88
2023-03-26T18:12:38.466Z,3.90
2023-03-26T18:15:45.024Z,2.70
2023-03-26T18:18:58.903Z,3.70
2023-03-26T18:21:51.192Z,2.78
2023-03-26T18:24:39.484Z,2.58
2023-03-26T18:27:33.541Z,4.00
2023-03-26T18:30:23.433Z,2.35
2023-03-26T18:33:15.555Z,3.15
2023-03-26T18:36:03.725Z,2.80
2023-03-26T18:38:50.603Z,3.72
2023-03-26T18:41:39.382Z,4.40
2023-03-26T18:44:27.009Z,3.10
2023-03-26T18:47:15.160Z,2.58
2023-03-26T18:50:02.360Z,2.78
2023-03-26T18:52:49.264Z,2.92
2023-03-26T18:55:39.545Z,3.47
2023-03-26T18:58:34.535Z,3.22
2023-03-26T19:01:25.842Z,3.83
2023-03-26T19:04:13.239Z,4.65
2023-03-26T19:07:01.613Z,3.25
2023-03-26T19:09:48.717Z,4.70
2023-03-26T19:12:37.373Z,3.45
2023-03-26T19:15:26.535Z,2.78
2023-03-26T19:18:18.237Z,4.55
2023-03-26T19:21:05.472Z,3.00
2023-03-26T19:23:52.768Z,3.53
2023-03-26T19:26:39.851Z,3.10
2023-03-26T19:29:32.165Z,4.70
2023-03-26T19:32:21.988Z,4.47
2023-03-26T19:35:19.962Z,3.67
2023-03-26T19:38:27.948Z,3.72
2023-03-26T19:41:24.301Z,3.47
2023-03-26T19:44:25.790Z,3.55
2023-03-26T19:47:39.012Z,3.22
2023-03-26T19:50:33.590Z,3.33
2023-03-26T19:53:25.530Z,3.13
2023-03-26T19:56:14.604Z,4.28
2023-03-26T19:59:02.312Z,3.92
2023-03-26T20:01:49.240Z,3.92
2023-03-26T20:04:36.116Z,4.00
2023-03-26T20:07:34.985Z,4.05
2023-03-26T20:10:23.871Z,2.80
2023-03-26T20:13:19.781Z,3.28
2023-03-26T20:16:27.656Z,3.42
2023-03-26T20:19:15.359Z,2.65
2023-03-26T20:22:02.490Z,3.65
2023-03-26T20:24:50.766Z,2.85
2023-03-26T20:27:37.580Z,3.87
2023-03-26T20:30:36.801Z,2.13
2023-03-26T20:33:25.817Z,3.50
2023-03-26T20:36:13.690Z,4.13
2023-03-26T20:39:00.832Z,2.30
2023-03-26T20:41:49.954Z,3.28
2023-03-26T20:47:24.187Z,3.25
2023-03-26T20:50:14.072Z,2.53
2023-03-26T20:53:02.436Z,2.47
2023-03-26T20:55:51.625Z,2.70
2023-03-26T21:01:27.759Z,1.40
2023-03-26T21:04:16.184Z,3.17
2023-03-26T21:07:15.067Z,2.27
2023-03-26T21:10:05.453Z,3.05
2023-03-26T21:13:12.872Z,2.47
2023-03-26T21:16:00.991Z,2.00
2023-03-26T21:18:48.667Z,2.83
2023-03-26T21:21:59.134Z,1.52
2023-03-26T21:25:08.272Z,2.63
2023-03-26T21:30:48.421Z,2.22
2023-03-26T21:33:35.223Z,2.80
2023-03-26T21:36:23.076Z,3.25
2023-03-26T21:39:11.134Z,1.88
2023-03-26T21:42:05.291Z,2.97
2023-03-26T21:44:52.834Z,1.30
2023-03-26T21:47:41.195Z,1.67
2023-03-26T21:50:28.368Z,2.13
2023-03-26T21:53:15.697Z,1.67
2023-03-26T21:56:13.483Z,2.08
2023-03-26T21:59:11.321Z,1.58
2023-03-26T22:02:06.645Z,1.88
2023-03-26T22:05:13.579Z,1.20
2023-03-26T22:08:02.895Z,1.50
2023-03-26T22:10:49.730Z,2.25
2023-03-26T22:13:38.493Z,1.45
2023-03-26T22:16:25.708Z,1.27
2023-03-26T22:19:13.731Z,2.53
2023-03-26T22:22:00.914Z,1.63
2023-03-26T22:24:47.869Z,2.08
2023-03-26T22:27:34.718Z,2.13
2023-03-26T22:30:32.855Z,1.13
2023-03-26T22:33:20.052Z,1.92
2023-03-26T22:36:22.626Z,1.00
2023-03-26T22:39:10.695Z,1.92
2023-03-26T22:41:57.608Z,3.58
2023-03-26T22:44:44.442Z,2.20
2023-03-26T22:47:33.626Z,3.08
2023-03-26T22:50:20.680Z,1.73
2023-03-26T22:53:07.664Z,2.72
2023-03-26T22:55:54.556Z,2.55
2023-03-26T22:58:42.235Z,1.25
2023-03-26T23:01:29.760Z,1.98
2023-03-26T23:04:31.710Z,1.60
2023-03-26T23:07:19.264Z,1.67
2023-03-26T23:10:06.920Z,1.10
2023-03-26T23:12:53.864Z,1.67
2023-03-26T23:15:40.724Z,1.92
2023-03-26T23:18:28.875Z,3.08
2023-03-26T23:21:18.508Z,2.83
2023-03-26T23:24:05.708Z,1.75
2023-03-26T23:26:53.261Z,1.45
2023-03-26T23:29:40.149Z,1.92
2023-03-26T23:32:28.157Z,1.08
2023-03-26T23:35:15.106Z,1.20
2023-03-26T23:38:02.259Z,1.45
2023-03-26T23:40:56.995Z,2.13
2023-03-26T23:43:53.513Z,3.55
2023-03-26T23:46:42.790Z,1.23
2023-03-26T23:49:29.631Z,1.00
2023-03-26T23:52:16.696Z,1.50
2023-03-26T23:55:03.786Z,1.92
2023-03-26T23:57:50.654Z,1.75
